sensor_id;sensor_type;location;lat;lon;timestamp;pressure;altitude;pressure_sealevel;temperature
75811;BMP280;64449;50.016;19.954;2024-02-21T00:00:34;99332.55;;;7.69
75811;BMP280;64449;50.016;19.954;2024-02-21T00:03:00;99332.64;;;7.66
75811;BMP280;64449;50.016;19.954;2024-02-21T00:05:27;99327.72;;;7.63
75811;BMP280;64449;50.016;19.954;2024-02-21T00:07:53;99331.33;;;7.61
75811;BMP280;64449;50.016;19.954;2024-02-21T00:10:18;99329.20;;;7.58
75811;BMP280;64449;50.016;19.954;2024-02-21T00:12:44;99326.80;;;7.55
75811;BMP280;64449;50.016;19.954;2024-02-21T00:15:09;99326.92;;;7.51
75811;BMP280;64449;50.016;19.954;2024-02-21T00:17:35;99326.21;;;7.48
75811;BMP280;64449;50.016;19.954;2024-02-21T00:20:00;99328.41;;;7.44
75811;BMP280;64449;50.016;19.954;2024-02-21T00:22:25;99326.99;;;7.39
75811;BMP280;64449;50.016;19.954;2024-02-21T00:24:54;99327.06;;;7.34
75811;BMP280;64449;50.016;19.954;2024-02-21T00:27:19;99330.39;;;7.30
75811;BMP280;64449;50.016;19.954;2024-02-21T00:29:48;99332.16;;;7.25
75811;BMP280;64449;50.016;19.954;2024-02-21T00:32:13;99333.91;;;7.19
75811;BMP280;64449;50.016;19.954;2024-02-21T00:34:38;99335.51;;;7.15
75811;BMP280;64449;50.016;19.954;2024-02-21T00:37:04;99333.54;;;7.12
75811;BMP280;64449;50.016;19.954;2024-02-21T00:39:29;99334.13;;;7.08
75811;BMP280;64449;50.016;19.954;2024-02-21T00:41:55;99330.91;;;7.06
75811;BMP280;64449;50.016;19.954;2024-02-21T00:44:20;99326.08;;;7.03
75811;BMP280;64449;50.016;19.954;2024-02-21T00:46:46;99321.67;;;7.01
75811;BMP280;64449;50.016;19.954;2024-02-21T00:49:12;99315.70;;;6.99
75811;BMP280;64449;50.016;19.954;2024-02-21T00:51:38;99313.67;;;6.99
75811;BMP280;64449;50.016;19.954;2024-02-21T00:54:03;99306.65;;;6.99
75811;BMP280;64449;50.016;19.954;2024-02-21T00:56:29;99297.39;;;6.98
75811;BMP280;64449;50.016;19.954;2024-02-21T00:58:55;99303.20;;;6.95
75811;BMP280;64449;50.016;19.954;2024-02-21T01:01:22;99302.64;;;6.94
75811;BMP280;64449;50.016;19.954;2024-02-21T01:03:49;99302.20;;;6.95
75811;BMP280;64449;50.016;19.954;2024-02-21T01:06:14;99298.71;;;6.95
75811;BMP280;64449;50.016;19.954;2024-02-21T01:08:39;99299.97;;;6.95
75811;BMP280;64449;50.016;19.954;2024-02-21T01:11:05;99295.69;;;6.95
75811;BMP280;64449;50.016;19.954;2024-02-21T01:13:30;99292.05;;;6.95
75811;BMP280;64449;50.016;19.954;2024-02-21T01:15:56;99291.34;;;6.93
75811;BMP280;64449;50.016;19.954;2024-02-21T01:18:21;99293.46;;;6.88
75811;BMP280;64449;50.016;19.954;2024-02-21T01:20:47;99298.28;;;6.84
75811;BMP280;64449;50.016;19.954;2024-02-21T01:23:12;99296.58;;;6.81
75811;BMP280;64449;50.016;19.954;2024-02-21T01:25:37;99297.65;;;6.80
75811;BMP280;64449;50.016;19.954;2024-02-21T01:28:03;99295.09;;;6.79
75811;BMP280;64449;50.016;19.954;2024-02-21T01:30:29;99290.73;;;6.78
75811;BMP280;64449;50.016;19.954;2024-02-21T01:32:54;99282.30;;;6.77
75811;BMP280;64449;50.016;19.954;2024-02-21T01:35:19;99281.05;;;6.74
75811;BMP280;64449;50.016;19.954;2024-02-21T01:37:45;99279.35;;;6.72
75811;BMP280;64449;50.016;19.954;2024-02-21T01:40:11;99277.01;;;6.69
75811;BMP280;64449;50.016;19.954;2024-02-21T01:42:40;99274.66;;;6.66
75811;BMP280;64449;50.016;19.954;2024-02-21T01:45:10;99270.48;;;6.64
75811;BMP280;64449;50.016;19.954;2024-02-21T01:47:37;99267.41;;;6.62
75811;BMP280;64449;50.016;19.954;2024-02-21T01:50:03;99267.52;;;6.60
75811;BMP280;64449;50.016;19.954;2024-02-21T01:52:29;99267.50;;;6.58
75811;BMP280;64449;50.016;19.954;2024-02-21T01:54:57;99263.30;;;6.55
75811;BMP280;64449;50.016;19.954;2024-02-21T01:57:23;99260.95;;;6.52
75811;BMP280;64449;50.016;19.954;2024-02-21T01:59:49;99264.13;;;6.48
75811;BMP280;64449;50.016;19.954;2024-02-21T02:02:15;99264.39;;;6.44
75811;BMP280;64449;50.016;19.954;2024-02-21T02:04:42;99262.23;;;6.41
75811;BMP280;64449;50.016;19.954;2024-02-21T02:07:08;99254.76;;;6.39
75811;BMP280;64449;50.016;19.954;2024-02-21T02:09:34;99252.16;;;6.38
75811;BMP280;64449;50.016;19.954;2024-02-21T02:12:00;99254.71;;;6.37
75811;BMP280;64449;50.016;19.954;2024-02-21T02:14:26;99253.13;;;6.36
75811;BMP280;64449;50.016;19.954;2024-02-21T02:16:52;99251.70;;;6.36
75811;BMP280;64449;50.016;19.954;2024-02-21T02:19:17;99253.27;;;6.37
75811;BMP280;64449;50.016;19.954;2024-02-21T02:21:46;99252.66;;;6.35
75811;BMP280;64449;50.016;19.954;2024-02-21T02:24:19;99258.52;;;6.33
75811;BMP280;64449;50.016;19.954;2024-02-21T02:26:45;99257.85;;;6.30
75811;BMP280;64449;50.016;19.954;2024-02-21T02:29:11;99252.41;;;6.28
75811;BMP280;64449;50.016;19.954;2024-02-21T02:31:36;99249.18;;;6.27
75811;BMP280;64449;50.016;19.954;2024-02-21T02:34:03;99245.47;;;6.26
75811;BMP280;64449;50.016;19.954;2024-02-21T02:36:33;99246.59;;;6.25
75811;BMP280;64449;50.016;19.954;2024-02-21T02:38:59;99245.95;;;6.25
75811;BMP280;64449;50.016;19.954;2024-02-21T02:41:24;99241.44;;;6.26
75811;BMP280;64449;50.016;19.954;2024-02-21T02:43:50;99246.27;;;6.28
75811;BMP280;64449;50.016;19.954;2024-02-21T02:46:15;99240.52;;;6.28
75811;BMP280;64449;50.016;19.954;2024-02-21T02:48:41;99235.60;;;6.26
75811;BMP280;64449;50.016;19.954;2024-02-21T02:51:06;99236.73;;;6.25
75811;BMP280;64449;50.016;19.954;2024-02-21T02:53:32;99242.60;;;6.25
75811;BMP280;64449;50.016;19.954;2024-02-21T02:55:57;99243.52;;;6.23
75811;BMP280;64449;50.016;19.954;2024-02-21T02:58:23;99237.08;;;6.22
75811;BMP280;64449;50.016;19.954;2024-02-21T03:00:48;99237.66;;;6.22
75811;BMP280;64449;50.016;19.954;2024-02-21T03:03:13;99237.94;;;6.20
75811;BMP280;64449;50.016;19.954;2024-02-21T03:05:39;99239.55;;;6.20
75811;BMP280;64449;50.016;19.954;2024-02-21T03:08:04;99234.57;;;6.20
75811;BMP280;64449;50.016;19.954;2024-02-21T03:10:33;99234.80;;;6.20
75811;BMP280;64449;50.016;19.954;2024-02-21T03:12:58;99230.61;;;6.22
75811;BMP280;64449;50.016;19.954;2024-02-21T03:15:24;99226.80;;;6.23
75811;BMP280;64449;50.016;19.954;2024-02-21T03:17:49;99226.34;;;6.24
75811;BMP280;64449;50.016;19.954;2024-02-21T03:20:15;99222.69;;;6.25
75811;BMP280;64449;50.016;19.954;2024-02-21T03:22:41;99219.90;;;6.26
75811;BMP280;64449;50.016;19.954;2024-02-21T03:25:07;99222.46;;;6.27
75811;BMP280;64449;50.016;19.954;2024-02-21T03:27:33;99225.95;;;6.26
75811;BMP280;64449;50.016;19.954;2024-02-21T03:29:59;99223.33;;;6.25
75811;BMP280;64449;50.016;19.954;2024-02-21T03:32:24;99224.42;;;6.25
75811;BMP280;64449;50.016;19.954;2024-02-21T03:34:49;99224.97;;;6.26
75811;BMP280;64449;50.016;19.954;2024-02-21T03:37:15;99224.13;;;6.27
75811;BMP280;64449;50.016;19.954;2024-02-21T03:39:41;99221.34;;;6.28
75811;BMP280;64449;50.016;19.954;2024-02-21T03:42:06;99220.34;;;6.28
75811;BMP280;64449;50.016;19.954;2024-02-21T03:44:32;99222.57;;;6.26
75811;BMP280;64449;50.016;19.954;2024-02-21T03:46:59;99227.31;;;6.27
75811;BMP280;64449;50.016;19.954;2024-02-21T03:49:24;99230.89;;;6.29
75811;BMP280;64449;50.016;19.954;2024-02-21T03:51:50;99231.11;;;6.30
75811;BMP280;64449;50.016;19.954;2024-02-21T03:54:15;99227.54;;;6.32
75811;BMP280;64449;50.016;19.954;2024-02-21T03:56:40;99227.18;;;6.35
75811;BMP280;64449;50.016;19.954;2024-02-21T03:59:07;99223.71;;;6.37
75811;BMP280;64449;50.016;19.954;2024-02-21T04:01:34;99222.05;;;6.39
75811;BMP280;64449;50.016;19.954;2024-02-21T04:03:59;99223.74;;;6.41
75811;BMP280;64449;50.016;19.954;2024-02-21T04:06:25;99225.55;;;6.42
75811;BMP280;64449;50.016;19.954;2024-02-21T04:08:50;99225.09;;;6.42
75811;BMP280;64449;50.016;19.954;2024-02-21T04:11:16;99218.45;;;6.43
75811;BMP280;64449;50.016;19.954;2024-02-21T04:13:42;99219.14;;;6.45
75811;BMP280;64449;50.016;19.954;2024-02-21T04:16:08;99213.51;;;6.46
75811;BMP280;64449;50.016;19.954;2024-02-21T04:18:33;99212.70;;;6.47
75811;BMP280;64449;50.016;19.954;2024-02-21T04:20:59;99209.08;;;6.48
75811;BMP280;64449;50.016;19.954;2024-02-21T04:23:24;99201.38;;;6.49
75811;BMP280;64449;50.016;19.954;2024-02-21T04:25:50;99193.80;;;6.49
75811;BMP280;64449;50.016;19.954;2024-02-21T04:28:15;99194.86;;;6.49
75811;BMP280;64449;50.016;19.954;2024-02-21T04:30:41;99203.15;;;6.49
75811;BMP280;64449;50.016;19.954;2024-02-21T04:33:06;99207.91;;;6.49
75811;BMP280;64449;50.016;19.954;2024-02-21T04:35:31;99206.37;;;6.50
75811;BMP280;64449;50.016;19.954;2024-02-21T04:37:57;99200.62;;;6.52
75811;BMP280;64449;50.016;19.954;2024-02-21T04:40:22;99197.79;;;6.52
75811;BMP280;64449;50.016;19.954;2024-02-21T04:42:48;99190.23;;;6.50
75811;BMP280;64449;50.016;19.954;2024-02-21T04:45:13;99187.77;;;6.47
75811;BMP280;64449;50.016;19.954;2024-02-21T04:47:39;99179.61;;;6.43
75811;BMP280;64449;50.016;19.954;2024-02-21T04:50:04;99171.24;;;6.40
75811;BMP280;64449;50.016;19.954;2024-02-21T04:52:31;99172.57;;;6.39
75811;BMP280;64449;50.016;19.954;2024-02-21T04:54:56;99174.02;;;6.37
75811;BMP280;64449;50.016;19.954;2024-02-21T04:57:22;99172.20;;;6.36
75811;BMP280;64449;50.016;19.954;2024-02-21T04:59:47;99175.00;;;6.36
75811;BMP280;64449;50.016;19.954;2024-02-21T05:02:13;99181.00;;;6.38
75811;BMP280;64449;50.016;19.954;2024-02-21T05:04:39;99188.48;;;6.39
75811;BMP280;64449;50.016;19.954;2024-02-21T05:07:07;99193.39;;;6.40
75811;BMP280;64449;50.016;19.954;2024-02-21T05:09:32;99193.46;;;6.42
75811;BMP280;64449;50.016;19.954;2024-02-21T05:11:57;99191.86;;;6.43
75811;BMP280;64449;50.016;19.954;2024-02-21T05:14:26;99191.11;;;6.45
75811;BMP280;64449;50.016;19.954;2024-02-21T05:16:55;99189.58;;;6.45
75811;BMP280;64449;50.016;19.954;2024-02-21T05:19:20;99191.37;;;6.45
75811;BMP280;64449;50.016;19.954;2024-02-21T05:21:46;99190.40;;;6.47
75811;BMP280;64449;50.016;19.954;2024-02-21T05:24:11;99190.51;;;6.47
75811;BMP280;64449;50.016;19.954;2024-02-21T05:26:37;99189.42;;;6.46
75811;BMP280;64449;50.016;19.954;2024-02-21T05:29:02;99187.86;;;6.46
75811;BMP280;64449;50.016;19.954;2024-02-21T05:31:54;99193.73;;;6.45
75811;BMP280;64449;50.016;19.954;2024-02-21T05:34:22;99188.35;;;6.43
75811;BMP280;64449;50.016;19.954;2024-02-21T05:36:47;99185.27;;;6.43
75811;BMP280;64449;50.016;19.954;2024-02-21T05:39:15;99188.29;;;6.42
75811;BMP280;64449;50.016;19.954;2024-02-21T05:41:41;99189.84;;;6.42
75811;BMP280;64449;50.016;19.954;2024-02-21T05:44:07;99191.73;;;6.43
75811;BMP280;64449;50.016;19.954;2024-02-21T05:46:32;99188.28;;;6.45
75811;BMP280;64449;50.016;19.954;2024-02-21T05:48:58;99187.75;;;6.46
75811;BMP280;64449;50.016;19.954;2024-02-21T05:51:23;99187.44;;;6.48
75811;BMP280;64449;50.016;19.954;2024-02-21T05:53:48;99186.49;;;6.51
75811;BMP280;64449;50.016;19.954;2024-02-21T05:56:15;99184.91;;;6.53
75811;BMP280;64449;50.016;19.954;2024-02-21T05:58:40;99182.19;;;6.57
75811;BMP280;64449;50.016;19.954;2024-02-21T06:01:07;99182.45;;;6.61
75811;BMP280;64449;50.016;19.954;2024-02-21T06:03:33;99180.34;;;6.62
75811;BMP280;64449;50.016;19.954;2024-02-21T06:05:59;99180.33;;;6.64
75811;BMP280;64449;50.016;19.954;2024-02-21T06:08:25;99181.91;;;6.66
75811;BMP280;64449;50.016;19.954;2024-02-21T06:10:50;99178.48;;;6.68
75811;BMP280;64449;50.016;19.954;2024-02-21T06:13:25;99179.48;;;6.71
75811;BMP280;64449;50.016;19.954;2024-02-21T06:15:50;99182.15;;;6.75
75811;BMP280;64449;50.016;19.954;2024-02-21T06:18:20;99179.20;;;6.79
75811;BMP280;64449;50.016;19.954;2024-02-21T06:20:46;99183.30;;;6.82
75811;BMP280;64449;50.016;19.954;2024-02-21T06:23:15;99182.27;;;6.86
75811;BMP280;64449;50.016;19.954;2024-02-21T06:25:42;99181.45;;;6.90
75811;BMP280;64449;50.016;19.954;2024-02-21T06:28:08;99177.95;;;6.94
75811;BMP280;64449;50.016;19.954;2024-02-21T06:30:33;99169.92;;;6.98
75811;BMP280;64449;50.016;19.954;2024-02-21T06:32:59;99169.40;;;7.00
75811;BMP280;64449;50.016;19.954;2024-02-21T06:35:25;99165.90;;;7.02
75811;BMP280;64449;50.016;19.954;2024-02-21T06:37:51;99169.52;;;7.03
75811;BMP280;64449;50.016;19.954;2024-02-21T06:40:18;99167.79;;;7.04
75811;BMP280;64449;50.016;19.954;2024-02-21T06:42:43;99166.40;;;7.05
75811;BMP280;64449;50.016;19.954;2024-02-21T06:45:08;99167.48;;;7.06
75811;BMP280;64449;50.016;19.954;2024-02-21T06:47:34;99170.39;;;7.08
75811;BMP280;64449;50.016;19.954;2024-02-21T06:50:00;99175.15;;;7.09
75811;BMP280;64449;50.016;19.954;2024-02-21T06:52:25;99177.40;;;7.12
75811;BMP280;64449;50.016;19.954;2024-02-21T06:54:50;99177.65;;;7.16
75811;BMP280;64449;50.016;19.954;2024-02-21T06:57:16;99177.39;;;7.28
75811;BMP280;64449;50.016;19.954;2024-02-21T06:59:41;99181.44;;;7.46
75811;BMP280;64449;50.016;19.954;2024-02-21T07:02:08;99173.79;;;7.64
75811;BMP280;64449;50.016;19.954;2024-02-21T07:04:34;99175.73;;;7.72
75811;BMP280;64449;50.016;19.954;2024-02-21T07:07:00;99171.16;;;7.73
75811;BMP280;64449;50.016;19.954;2024-02-21T07:09:25;99169.58;;;7.72
75811;BMP280;64449;50.016;19.954;2024-02-21T07:11:51;99166.97;;;7.73
75811;BMP280;64449;50.016;19.954;2024-02-21T07:14:17;99165.21;;;7.76
75811;BMP280;64449;50.016;19.954;2024-02-21T07:16:43;99165.91;;;7.82
75811;BMP280;64449;50.016;19.954;2024-02-21T07:19:08;99167.91;;;7.88
75811;BMP280;64449;50.016;19.954;2024-02-21T07:21:34;99168.45;;;8.02
75811;BMP280;64449;50.016;19.954;2024-02-21T07:23:59;99170.45;;;8.15
75811;BMP280;64449;50.016;19.954;2024-02-21T07:26:25;99167.37;;;8.27
75811;BMP280;64449;50.016;19.954;2024-02-21T07:28:50;99161.78;;;8.38
75811;BMP280;64449;50.016;19.954;2024-02-21T07:31:16;99160.43;;;8.53
75811;BMP280;64449;50.016;19.954;2024-02-21T07:33:41;99157.82;;;8.67
75811;BMP280;64449;50.016;19.954;2024-02-21T07:36:09;99158.70;;;8.79
75811;BMP280;64449;50.016;19.954;2024-02-21T07:38:35;99158.06;;;8.90
75811;BMP280;64449;50.016;19.954;2024-02-21T07:41:01;99152.57;;;9.05
75811;BMP280;64449;50.016;19.954;2024-02-21T07:43:26;99153.17;;;9.15
75811;BMP280;64449;50.016;19.954;2024-02-21T07:45:52;99150.61;;;9.27
75811;BMP280;64449;50.016;19.954;2024-02-21T07:48:21;99147.95;;;9.38
75811;BMP280;64449;50.016;19.954;2024-02-21T07:50:50;99149.46;;;9.48
75811;BMP280;64449;50.016;19.954;2024-02-21T07:53:15;99143.21;;;9.55
75811;BMP280;64449;50.016;19.954;2024-02-21T07:55:41;99139.20;;;9.67
75811;BMP280;64449;50.016;19.954;2024-02-21T07:58:06;99143.36;;;9.84
75811;BMP280;64449;50.016;19.954;2024-02-21T08:00:33;99139.98;;;10.09
75811;BMP280;64449;50.016;19.954;2024-02-21T08:02:58;99134.13;;;10.33
75811;BMP280;64449;50.016;19.954;2024-02-21T08:05:24;99134.23;;;10.48
75811;BMP280;64449;50.016;19.954;2024-02-21T08:07:49;99131.40;;;10.56
75811;BMP280;64449;50.016;19.954;2024-02-21T08:10:15;99133.48;;;10.63
75811;BMP280;64449;50.016;19.954;2024-02-21T08:12:41;99135.92;;;10.67
75811;BMP280;64449;50.016;19.954;2024-02-21T08:15:07;99140.61;;;10.80
75811;BMP280;64449;50.016;19.954;2024-02-21T08:17:37;99131.15;;;10.89
75811;BMP280;64449;50.016;19.954;2024-02-21T08:20:04;99124.91;;;10.98
75811;BMP280;64449;50.016;19.954;2024-02-21T08:22:29;99125.86;;;11.02
75811;BMP280;64449;50.016;19.954;2024-02-21T08:24:55;99120.31;;;10.88
75811;BMP280;64449;50.016;19.954;2024-02-21T08:27:21;99126.50;;;10.78
75811;BMP280;64449;50.016;19.954;2024-02-21T08:29:46;99127.10;;;10.69
75811;BMP280;64449;50.016;19.954;2024-02-21T08:32:12;99126.64;;;10.62
75811;BMP280;64449;50.016;19.954;2024-02-21T08:34:37;99121.54;;;10.56
75811;BMP280;64449;50.016;19.954;2024-02-21T08:37:03;99119.34;;;10.49
75811;BMP280;64449;50.016;19.954;2024-02-21T08:39:28;99116.41;;;10.44
75811;BMP280;64449;50.016;19.954;2024-02-21T08:41:56;99116.22;;;10.45
75811;BMP280;64449;50.016;19.954;2024-02-21T08:44:23;99112.55;;;10.46
75811;BMP280;64449;50.016;19.954;2024-02-21T08:46:51;99110.14;;;10.61
75811;BMP280;64449;50.016;19.954;2024-02-21T08:49:16;99107.65;;;10.88
75811;BMP280;64449;50.016;19.954;2024-02-21T08:51:42;99108.40;;;11.12
75811;BMP280;64449;50.016;19.954;2024-02-21T08:54:08;99110.05;;;11.27
75811;BMP280;64449;50.016;19.954;2024-02-21T08:56:33;99099.68;;;11.33
75811;BMP280;64449;50.016;19.954;2024-02-21T08:59:01;99097.27;;;11.41
75811;BMP280;64449;50.016;19.954;2024-02-21T09:01:26;99093.40;;;11.50
75811;BMP280;64449;50.016;19.954;2024-02-21T09:03:52;99089.39;;;11.56
75811;BMP280;64449;50.016;19.954;2024-02-21T09:06:19;99084.67;;;11.68
75811;BMP280;64449;50.016;19.954;2024-02-21T09:08:48;99083.83;;;11.91
75811;BMP280;64449;50.016;19.954;2024-02-21T09:11:13;99081.23;;;12.22
75811;BMP280;64449;50.016;19.954;2024-02-21T09:13:39;99082.40;;;12.65
75811;BMP280;64449;50.016;19.954;2024-02-21T09:16:04;99071.89;;;12.82
75811;BMP280;64449;50.016;19.954;2024-02-21T09:18:31;99068.77;;;12.80
75811;BMP280;64449;50.016;19.954;2024-02-21T09:20:57;99073.42;;;12.77
75811;BMP280;64449;50.016;19.954;2024-02-21T09:23:25;99075.04;;;12.64
75811;BMP280;64449;50.016;19.954;2024-02-21T09:25:51;99077.47;;;12.55
75811;BMP280;64449;50.016;19.954;2024-02-21T09:28:17;99082.43;;;12.58
75811;BMP280;64449;50.016;19.954;2024-02-21T09:30:42;99080.23;;;12.53
75811;BMP280;64449;50.016;19.954;2024-02-21T09:33:08;99080.27;;;12.64
75811;BMP280;64449;50.016;19.954;2024-02-21T09:35:33;99079.82;;;12.90
75811;BMP280;64449;50.016;19.954;2024-02-21T09:37:59;99087.21;;;13.43
75811;BMP280;64449;50.016;19.954;2024-02-21T09:40:25;99088.73;;;14.04
75811;BMP280;64449;50.016;19.954;2024-02-21T09:43:05;99088.45;;;14.48
75811;BMP280;64449;50.016;19.954;2024-02-21T09:45:34;99086.36;;;14.95
75811;BMP280;64449;50.016;19.954;2024-02-21T09:50:51;99087.64;;;15.82
75811;BMP280;64449;50.016;19.954;2024-02-21T09:53:18;99087.02;;;16.06
75811;BMP280;64449;50.016;19.954;2024-02-21T09:55:45;99084.23;;;16.22
75811;BMP280;64449;50.016;19.954;2024-02-21T09:58:12;99088.59;;;16.09
75811;BMP280;64449;50.016;19.954;2024-02-21T10:00:38;99085.17;;;15.95
75811;BMP280;64449;50.016;19.954;2024-02-21T10:03:04;99083.39;;;15.65
75811;BMP280;64449;50.016;19.954;2024-02-21T10:05:34;99076.80;;;15.49
75811;BMP280;64449;50.016;19.954;2024-02-21T10:08:01;99073.30;;;15.34
75811;BMP280;64449;50.016;19.954;2024-02-21T10:10:27;99065.23;;;15.39
75811;BMP280;64449;50.016;19.954;2024-02-21T10:12:53;99066.15;;;15.57
75811;BMP280;64449;50.016;19.954;2024-02-21T10:15:23;99060.02;;;15.56
75811;BMP280;64449;50.016;19.954;2024-02-21T10:18:00;99050.65;;;15.40
75811;BMP280;64449;50.016;19.954;2024-02-21T10:20:26;99048.86;;;15.38
75811;BMP280;64449;50.016;19.954;2024-02-21T10:23:03;99048.48;;;15.21
75811;BMP280;64449;50.016;19.954;2024-02-21T10:25:33;99048.33;;;15.14
75811;BMP280;64449;50.016;19.954;2024-02-21T10:27:58;99053.29;;;15.05
75811;BMP280;64449;50.016;19.954;2024-02-21T10:30:24;99043.67;;;14.95
75811;BMP280;64449;50.016;19.954;2024-02-21T10:32:50;99036.29;;;14.82
75811;BMP280;64449;50.016;19.954;2024-02-21T10:35:26;99033.94;;;15.04
75811;BMP280;64449;50.016;19.954;2024-02-21T10:37:53;99036.02;;;15.62
75811;BMP280;64449;50.016;19.954;2024-02-21T10:40:23;99034.59;;;15.97
75811;BMP280;64449;50.016;19.954;2024-02-21T10:43:01;99032.57;;;15.94
75811;BMP280;64449;50.016;19.954;2024-02-21T10:45:31;99017.61;;;15.50
75811;BMP280;64449;50.016;19.954;2024-02-21T10:50:40;99009.24;;;16.66
75811;BMP280;64449;50.016;19.954;2024-02-21T10:53:29;99008.85;;;16.71
75811;BMP280;64449;50.016;19.954;2024-02-21T10:58:45;99004.54;;;16.95
75811;BMP280;64449;50.016;19.954;2024-02-21T11:01:12;98997.85;;;17.16
75811;BMP280;64449;50.016;19.954;2024-02-21T11:03:41;99000.70;;;17.00
75811;BMP280;64449;50.016;19.954;2024-02-21T11:06:10;98992.98;;;16.86
75811;BMP280;64449;50.016;19.954;2024-02-21T11:08:36;98987.30;;;16.72
75811;BMP280;64449;50.016;19.954;2024-02-21T11:11:02;98985.20;;;16.55
75811;BMP280;64449;50.016;19.954;2024-02-21T11:13:30;98988.41;;;16.32
75811;BMP280;64449;50.016;19.954;2024-02-21T11:16:08;98982.79;;;16.00
75811;BMP280;64449;50.016;19.954;2024-02-21T11:18:35;98978.04;;;15.83
75811;BMP280;64449;50.016;19.954;2024-02-21T11:21:01;98976.53;;;15.70
75811;BMP280;64449;50.016;19.954;2024-02-21T11:23:27;98978.86;;;15.63
75811;BMP280;64449;50.016;19.954;2024-02-21T11:25:52;98974.58;;;15.57
75811;BMP280;64449;50.016;19.954;2024-02-21T11:28:28;98973.14;;;15.43
75811;BMP280;64449;50.016;19.954;2024-02-21T11:31:06;98971.47;;;15.44
75811;BMP280;64449;50.016;19.954;2024-02-21T11:33:33;98967.26;;;15.50
75811;BMP280;64449;50.016;19.954;2024-02-21T11:35:58;98967.11;;;15.44
75811;BMP280;64449;50.016;19.954;2024-02-21T11:38:24;98966.01;;;15.41
75811;BMP280;64449;50.016;19.954;2024-02-21T11:40:50;98965.94;;;15.35
75811;BMP280;64449;50.016;19.954;2024-02-21T11:43:16;98959.56;;;15.59
75811;BMP280;64449;50.016;19.954;2024-02-21T11:45:42;98951.60;;;15.61
75811;BMP280;64449;50.016;19.954;2024-02-21T11:48:07;98948.58;;;15.41
75811;BMP280;64449;50.016;19.954;2024-02-21T11:50:35;98953.81;;;15.35
75811;BMP280;64449;50.016;19.954;2024-02-21T11:53:02;98940.29;;;16.05
75811;BMP280;64449;50.016;19.954;2024-02-21T11:55:28;98933.91;;;16.64
75811;BMP280;64449;50.016;19.954;2024-02-21T11:57:54;98931.48;;;17.03
75811;BMP280;64449;50.016;19.954;2024-02-21T12:00:20;98933.61;;;17.32
75811;BMP280;64449;50.016;19.954;2024-02-21T12:02:47;98927.92;;;17.43
75811;BMP280;64449;50.016;19.954;2024-02-21T12:05:12;98921.52;;;17.29
75811;BMP280;64449;50.016;19.954;2024-02-21T12:07:39;98923.42;;;17.02
75811;BMP280;64449;50.016;19.954;2024-02-21T12:10:09;98921.32;;;16.69
75811;BMP280;64449;50.016;19.954;2024-02-21T12:12:36;98922.48;;;16.54
75811;BMP280;64449;50.016;19.954;2024-02-21T12:15:03;98923.36;;;16.27
75811;BMP280;64449;50.016;19.954;2024-02-21T12:17:30;98920.86;;;15.95
75811;BMP280;64449;50.016;19.954;2024-02-21T12:19:57;98922.71;;;15.63
75811;BMP280;64449;50.016;19.954;2024-02-21T12:22:25;98923.44;;;15.28
75811;BMP280;64449;50.016;19.954;2024-02-21T12:24:50;98920.13;;;14.98
75811;BMP280;64449;50.016;19.954;2024-02-21T12:27:16;98920.11;;;14.77
75811;BMP280;64449;50.016;19.954;2024-02-21T12:29:41;98915.80;;;14.66
75811;BMP280;64449;50.016;19.954;2024-02-21T12:32:06;98914.94;;;14.64
75811;BMP280;64449;50.016;19.954;2024-02-21T12:34:32;98912.59;;;14.52
75811;BMP280;64449;50.016;19.954;2024-02-21T12:36:58;98912.38;;;14.33
75811;BMP280;64449;50.016;19.954;2024-02-21T12:39:24;98909.16;;;14.17
75811;BMP280;64449;50.016;19.954;2024-02-21T12:41:53;98908.97;;;14.07
75811;BMP280;64449;50.016;19.954;2024-02-21T12:44:19;98907.58;;;14.07
75811;BMP280;64449;50.016;19.954;2024-02-21T12:46:44;98905.66;;;14.05
75811;BMP280;64449;50.016;19.954;2024-02-21T12:49:10;98908.52;;;13.95
75811;BMP280;64449;50.016;19.954;2024-02-21T12:51:36;98906.56;;;13.76
75811;BMP280;64449;50.016;19.954;2024-02-21T12:54:02;98902.83;;;13.58
75811;BMP280;64449;50.016;19.954;2024-02-21T12:56:30;98901.55;;;13.43
75811;BMP280;64449;50.016;19.954;2024-02-21T12:58:58;98900.17;;;13.36
75811;BMP280;64449;50.016;19.954;2024-02-21T13:01:24;98899.33;;;13.30
75811;BMP280;64449;50.016;19.954;2024-02-21T13:03:49;98900.54;;;13.23
75811;BMP280;64449;50.016;19.954;2024-02-21T13:06:14;98894.02;;;13.18
75811;BMP280;64449;50.016;19.954;2024-02-21T13:08:40;98891.36;;;13.12
75811;BMP280;64449;50.016;19.954;2024-02-21T13:11:06;98886.41;;;13.10
75811;BMP280;64449;50.016;19.954;2024-02-21T13:13:32;98881.75;;;13.14
75811;BMP280;64449;50.016;19.954;2024-02-21T13:15:58;98883.86;;;13.17
75811;BMP280;64449;50.016;19.954;2024-02-21T13:18:24;98880.77;;;13.17
75811;BMP280;64449;50.016;19.954;2024-02-21T13:20:49;98884.80;;;13.07
75811;BMP280;64449;50.016;19.954;2024-02-21T13:23:15;98886.73;;;12.95
75811;BMP280;64449;50.016;19.954;2024-02-21T13:25:40;98882.39;;;12.78
75811;BMP280;64449;50.016;19.954;2024-02-21T13:28:06;98881.19;;;12.61
75811;BMP280;64449;50.016;19.954;2024-02-21T13:30:32;98881.47;;;12.42
75811;BMP280;64449;50.016;19.954;2024-02-21T13:32:57;98878.05;;;12.23
75811;BMP280;64449;50.016;19.954;2024-02-21T13:35:23;98882.16;;;12.03
75811;BMP280;64449;50.016;19.954;2024-02-21T13:37:48;98873.23;;;11.81
75811;BMP280;64449;50.016;19.954;2024-02-21T13:40:15;98874.32;;;11.66
75811;BMP280;64449;50.016;19.954;2024-02-21T13:42:41;98859.98;;;11.53
75811;BMP280;64449;50.016;19.954;2024-02-21T13:45:07;98860.83;;;11.51
75811;BMP280;64449;50.016;19.954;2024-02-21T13:47:35;98861.09;;;11.52
75811;BMP280;64449;50.016;19.954;2024-02-21T13:50:05;98856.61;;;11.49
75811;BMP280;64449;50.016;19.954;2024-02-21T13:52:34;98856.96;;;11.46
75811;BMP280;64449;50.016;19.954;2024-02-21T13:55:00;98860.92;;;11.44
75811;BMP280;64449;50.016;19.954;2024-02-21T13:57:25;98861.51;;;11.40
75811;BMP280;64449;50.016;19.954;2024-02-21T13:59:50;98858.70;;;11.37
75811;BMP280;64449;50.016;19.954;2024-02-21T14:02:16;98853.02;;;11.32
75811;BMP280;64449;50.016;19.954;2024-02-21T14:04:42;98849.59;;;11.31
75811;BMP280;64449;50.016;19.954;2024-02-21T14:07:07;98848.54;;;11.30